| time (UTC) | temp F | wind direction | speed MPH | gust MPH | rain 1hr in | rain 24hr in | rain mn in | humidity % | barometer mb |
| 20260510175601 | 67 | 321 | 0.0 | 8.0 | 0.00 | 0.00 | 0.00 | 47 | 1016.1 |
| 20260510174600 | 67 | 32 | 3.0 | 4.0 | 0.00 | 0.00 | 0.00 | 40 | 1015.8 |
| 20260510173602 | 68 | 285 | 0.0 | 6.0 | 0.00 | 0.00 | 0.00 | 37 | 1015.8 |
| 20260510172601 | 67 | 342 | 0.0 | 6.0 | 0.00 | 0.00 | 0.00 | 40 | 1015.9 |
| 20260510170601 | 67 | 345 | 4.0 | 8.0 | 0.00 | 0.00 | 0.00 | 38 | 1016.1 |
| 20260510165601 | 66 | 2 | 0.0 | 6.0 | 0.00 | 0.00 | 0.00 | 42 | 1016.0 |
| 20260510164601 | 68 | 18 | 1.0 | 3.0 | 0.00 | 0.00 | 0.00 | 40 | 1016.0 |
| 20260510162558 | 65 | 62 | 1.0 | 6.0 | 0.00 | 0.00 | 0.00 | 43 | 1016.2 |
| 20260510160550 | 65 | 246 | 2.0 | 3.0 | 0.00 | 0.00 | 0.00 | 41 | 1016.2 |
| 20260510155543 | 64 | 75 | 2.0 | 6.0 | 0.00 | 0.00 | 0.00 | 42 | 1015.9 |
| 20260510154536 | 65 | 281 | 1.0 | 4.0 | 0.00 | 0.00 | 0.00 | 40 | 1015.8 |
| 20260510153533 | 63 | 8 | 1.0 | 6.0 | 0.00 | 0.00 | 0.00 | 46 | 1015.9 |
| 20260510151529 | 62 | 4 | 1.0 | 2.0 | 0.00 | 0.00 | 0.00 | 51 | 1015.3 |
| 20260510150526 | 61 | 20 | 1.0 | 6.0 | 0.00 | 0.00 | 0.00 | 50 | 1015.4 |
| 20260510145519 | 62 | 343 | 0.0 | 3.0 | 0.00 | 0.00 | 0.00 | 49 | 1015.5 |
| 20260510144516 | 61 | 333 | 1.0 | 2.0 | 0.00 | 0.00 | 0.00 | 49 | 1015.3 |
| 20260510143506 | 60 | 2 | 1.0 | 3.0 | 0.00 | 0.00 | 0.00 | 51 | 1015.0 |
| 20260510142506 | 60 | 18 | 1.0 | 3.0 | 0.00 | 0.00 | 0.00 | 50 | 1014.6 |
| 20260510141504 | 59 | 348 | 1.0 | 2.0 | 0.00 | 0.00 | 0.00 | 55 | 1014.6 |
| 20260510140501 | 58 | 359 | 0.0 | 2.0 | 0.00 | 0.00 | 0.00 | 55 | 1014.5 |
| 20260510135501 | 58 | 33 | 1.0 | 4.0 | 0.00 | 0.00 | 0.00 | 54 | 1014.5 |
| 20260510134501 | 58 | 348 | 0.0 | 2.0 | 0.00 | 0.00 | 0.00 | 55 | 1014.6 |
| 20260510133502 | 57 | 13 | 0.0 | 4.0 | 0.00 | 0.00 | 0.00 | 58 | 1014.2 |
| 20260510132502 | 56 | 13 | 0.0 | 2.0 | 0.00 | 0.00 | 0.00 | 59 | 1014.3 |
| 20260510131501 | 56 | 9 | 2.0 | 3.0 | 0.00 | 0.00 | 0.00 | 58 | 1014.2 |
| 20260510130502 | 56 | 344 | 0.0 | 2.0 | 0.00 | 0.00 | 0.00 | 66 | 1014.2 |
| 20260510124504 | 55 | 351 | 0.0 | 2.0 | 0.00 | 0.00 | 0.00 | 66 | 1013.9 |
| 20260510123448 | 54 | 345 | 0.0 | 1.0 | 0.00 | 0.01 | 0.00 | 67 | 1013.6 |
| 20260510122447 | 54 | 3 | 0.0 | 1.0 | 0.00 | 0.01 | 0.00 | 69 | 1013.6 |
| 20260510120430 | 54 | 357 | 0.0 | 2.0 | 0.00 | 0.02 | 0.00 | 70 | 1013.5 |
| 20260510115429 | 54 | 344 | 0.0 | 1.0 | 0.00 | 0.02 | 0.00 | 76 | 1013.3 |
| 20260510114430 | 54 | 351 | 0.0 | 0.0 | 0.00 | 0.02 | 0.00 | 76 | 1013.1 |
| 20260510113430 | 54 | 350 | 0.0 | 0.0 | 0.00 | 0.02 | 0.00 | 77 | 1013.1 |
| 20260510112429 | 54 | 350 | 0.0 | 2.0 | 0.00 | 0.02 | 0.00 | 75 | 1013.0 |
| 20260510111429 | 55 | 348 | 0.0 | 2.0 | 0.00 | 0.02 | 0.00 | 74 | 1012.6 |
| 20260510110410 | 55 | 335 | 0.0 | 4.0 | 0.00 | 0.02 | 0.00 | 73 | 1012.3 |
| 20260510105401 | 55 | 347 | 0.0 | 2.0 | 0.00 | 0.02 | 0.00 | 74 | 1012.5 |
| 20260510104401 | 55 | 31 | 3.0 | 6.0 | 0.00 | 0.03 | 0.00 | 73 | 1012.3 |
| 20260510103401 | 55 | 354 | 0.0 | 2.0 | 0.00 | 0.03 | 0.00 | 75 | 1011.8 |
| 20260510102400 | 55 | 336 | 0.0 | 2.0 | 0.00 | 0.04 | 0.00 | 74 | 1011.8 |
| 20260510101356 | 56 | 347 | 0.0 | 1.0 | 0.00 | 0.05 | 0.00 | 75 | 1011.4 |
| 20260510095341 | 56 | 18 | 0.0 | 2.0 | 0.00 | 0.07 | 0.00 | 75 | 1011.1 |
| 20260510094330 | 56 | 310 | 2.0 | 3.0 | 0.00 | 0.08 | 0.00 | 76 | 1011.2 |
| 20260510093331 | 56 | 10 | 1.0 | 2.0 | 0.00 | 0.08 | 0.00 | 75 | 1010.7 |
| 20260510092329 | 56 | 346 | 0.0 | 4.0 | 0.00 | 0.09 | 0.00 | 77 | 1010.7 |
| 20260510091329 | 57 | 0 | 1.0 | 2.0 | 0.00 | 0.09 | 0.00 | 75 | 1010.5 |
| 20260510090330 | 57 | 352 | 0.0 | 6.0 | 0.00 | 0.09 | 0.00 | 75 | 1010.2 |
| 20260510085329 | 56 | 355 | 1.0 | 1.0 | 0.00 | 0.10 | 0.00 | 79 | 1009.9 |
| 20260510084328 | 56 | 324 | 0.0 | 2.0 | 0.00 | 0.11 | 0.00 | 80 | 1009.8 |
| 20260510083328 | 56 | 346 | 0.0 | 2.0 | 0.00 | 0.12 | 0.00 | 82 | 1009.4 |
| 20260510082329 | 56 | 334 | 1.0 | 3.0 | 0.00 | 0.12 | 0.00 | 82 | 1009.3 |
| 20260510081329 | 56 | 334 | 0.0 | 2.0 | 0.00 | 0.13 | 0.00 | 82 | 1009.3 |
| 20260510080328 | 56 | 345 | 0.0 | 1.0 | 0.00 | 0.13 | 0.00 | 83 | 1009.1 |
| 20260510075329 | 55 | 346 | 0.0 | 1.0 | 0.00 | 0.15 | 0.00 | 84 | 1009.0 |
| 20260510074329 | 55 | 344 | 0.0 | 0.0 | 0.00 | 0.16 | 0.00 | 85 | 1009.1 |
| 20260510073328 | 56 | 346 | 0.0 | 1.0 | 0.00 | 0.18 | 0.00 | 83 | 1009.4 |
| 20260510072328 | 58 | 355 | 0.0 | 1.0 | 0.00 | 0.19 | 0.00 | 77 | 1009.3 |
| 20260510071327 | 57 | 344 | 0.0 | 2.0 | 0.00 | 0.21 | 0.00 | 80 | 1009.3 |
| 20260510070323 | 57 | 342 | 0.0 | 0.0 | 0.00 | 0.22 | 0.00 | 82 | 1009.3 |
| 20260510064314 | 59 | 344 | 0.0 | 1.0 | 0.00 | 0.24 | 0.00 | 76 | 1009.3 |
| 20260510063306 | 61 | 347 | 0.0 | 2.0 | 0.00 | 0.24 | 0.00 | 74 | 1009.1 |
| 20260510062307 | 62 | 358 | 1.0 | 3.0 | 0.00 | 0.25 | 0.00 | 71 | 1009.2 |
| 20260510061303 | 62 | 348 | 0.0 | 2.0 | 0.00 | 0.26 | 0.00 | 71 | 1009.3 |
| 20260510060301 | 62 | 9 | 0.0 | 6.0 | 0.00 | 0.26 | 0.00 | 72 | 1009.5 |
| 20260510055301 | 60 | 331 | 2.0 | 4.0 | 0.00 | 0.26 | 0.00 | 77 | 1009.5 |
| 20260510054300 | 58 | 324 | 0.0 | 1.0 | 0.00 | 0.26 | 0.00 | 85 | 1009.5 |
| 20260510051300 | 58 | 347 | 0.0 | 0.0 | 0.00 | 0.27 | 0.00 | 84 | 1009.1 |
| 20260510050301 | 58 | 353 | 0.0 | 0.0 | 0.00 | 0.27 | 0.00 | 84 | 1009.0 |
| 20260510045305 | 57 | 355 | 0.0 | 0.0 | 0.00 | 0.27 | 0.00 | 84 | 1008.8 |
| 20260510044301 | 57 | 348 | 0.0 | 0.0 | 0.00 | 0.27 | 0.00 | 84 | 1008.8 |
| 20260510043300 | 57 | 349 | 0.0 | 1.0 | 0.00 | 0.27 | 0.00 | 84 | 1008.8 |
| 20260510042305 | 57 | 349 | 0.0 | 0.0 | 0.00 | 0.27 | 0.00 | 83 | 1008.7 |
| 20260510041303 | 57 | 350 | 0.0 | 0.0 | 0.00 | 0.27 | 0.00 | 82 | 1008.7 |
| 20260510040301 | 58 | 345 | 0.0 | 0.0 | 0.00 | 0.27 | 0.00 | 81 | 1008.7 |
| 20260510035301 | 59 | 354 | 0.0 | 2.0 | 0.00 | 0.28 | 0.28 | 79 | 1008.5 |
| 20260510034301 | 58 | 338 | 0.0 | 1.0 | 0.00 | 0.28 | 0.28 | 82 | 1008.5 |
| 20260510032300 | 58 | 348 | 0.0 | 0.0 | 0.00 | 0.28 | 0.28 | 80 | 1008.4 |
| 20260510031301 | 59 | 348 | 0.0 | 0.0 | 0.00 | 0.28 | 0.28 | 78 | 1008.2 |
| 20260510024300 | 61 | 347 | 0.0 | 0.0 | 0.00 | 0.28 | 0.28 | 73 | 1008.0 |
| 20260510023239 | 62 | 347 | 0.0 | 2.0 | 0.00 | 0.28 | 0.28 | 70 | 1008.1 |
| 20260510021229 | 64 | 348 | 0.0 | 2.0 | 0.00 | 0.28 | 0.28 | 66 | 1007.9 |
| 20260510020229 | 64 | 351 | 0.0 | 4.0 | 0.00 | 0.28 | 0.28 | 64 | 1007.7 |
| 20260510014229 | 66 | 271 | 1.0 | 3.0 | 0.00 | 0.28 | 0.28 | 61 | 1007.4 |
| 20260510013230 | 66 | 349 | 1.0 | 2.0 | 0.00 | 0.28 | 0.28 | 61 | 1007.3 |
| 20260510012211 | 67 | 321 | 1.0 | 3.0 | 0.00 | 0.28 | 0.28 | 60 | 1007.3 |
| 20260510011208 | 67 | 241 | 2.0 | 6.0 | 0.00 | 0.28 | 0.28 | 59 | 1006.7 |
| 20260510010206 | 67 | 238 | 1.0 | 3.0 | 0.00 | 0.29 | 0.28 | 59 | 1007.0 |
| 20260510005203 | 68 | 140 | 2.0 | 3.0 | 0.00 | 0.29 | 0.28 | 57 | 1006.8 |
| 20260510004202 | 68 | 186 | 1.0 | 3.0 | 0.00 | 0.29 | 0.28 | 56 | 1006.6 |
| 20260510003201 | 69 | 341 | 2.0 | 6.0 | 0.00 | 0.29 | 0.28 | 55 | 1006.5 |
| 20260510002201 | 69 | 298 | 2.0 | 6.0 | 0.00 | 0.29 | 0.28 | 54 | 1006.5 |
| 20260510001201 | 69 | 214 | 4.0 | 6.0 | 0.00 | 0.29 | 0.28 | 53 | 1006.3 |
| 20260510000158 | 70 | 2 | 2.0 | 9.0 | 0.00 | 0.29 | 0.28 | 52 | 1006.2 |
| 20260509235155 | 70 | 345 | 4.0 | 9.0 | 0.00 | 0.29 | 0.28 | 51 | 1006.1 |
| 20260509233148 | 71 | 237 | 3.0 | 9.0 | 0.00 | 0.29 | 0.28 | 50 | 1006.1 |
| 20260509232143 | 71 | 241 | 3.0 | 11.0 | 0.00 | 0.29 | 0.28 | 50 | 1006.1 |
| 20260509231142 | 71 | 255 | 6.0 | 10.0 | 0.00 | 0.29 | 0.28 | 49 | 1006.0 |
| 20260509230140 | 71 | 189 | 4.0 | 9.0 | 0.00 | 0.29 | 0.28 | 47 | 1006.0 |
| 20260509225131 | 72 | 274 | 2.0 | 9.0 | 0.00 | 0.29 | 0.28 | 48 | 1005.9 |
| 20260509224130 | 71 | 251 | 2.0 | 11.0 | 0.00 | 0.29 | 0.28 | 50 | 1005.8 |
| 20260509223129 | 73 | 280 | 2.0 | 8.0 | 0.00 | 0.29 | 0.28 | 49 | 1005.7 |
| 20260509222128 | 72 | 319 | 4.0 | 9.0 | 0.00 | 0.29 | 0.28 | 51 | 1005.6 |
| 20260509221129 | 72 | 217 | 4.0 | 11.0 | 0.00 | 0.29 | 0.28 | 52 | 1005.6 |
| 20260509215129 | 72 | 348 | 2.0 | 10.0 | 0.00 | 0.29 | 0.28 | 52 | 1006.0 |
| 20260509214122 | 73 | 109 | 1.0 | 11.0 | 0.00 | 0.29 | 0.28 | 52 | 1005.9 |
| 20260509213116 | 72 | 231 | 4.0 | 10.0 | 0.00 | 0.29 | 0.28 | 50 | 1006.3 |
| 20260509212110 | 73 | 111 | 3.0 | 8.0 | 0.00 | 0.29 | 0.28 | 50 | 1006.0 |
| 20260509211104 | 72 | 181 | 3.0 | 11.0 | 0.00 | 0.29 | 0.28 | 50 | 1006.2 |
| 20260509205103 | 72 | 327 | 2.0 | 10.0 | 0.00 | 0.29 | 0.28 | 52 | 1006.1 |
| 20260509204102 | 72 | 212 | 2.0 | 10.0 | 0.00 | 0.29 | 0.28 | 50 | 1006.2 |
| 20260509203101 | 72 | 319 | 4.0 | 7.0 | 0.00 | 0.29 | 0.28 | 52 | 1006.4 |
| 20260509202101 | 71 | 238 | 2.0 | 13.0 | 0.00 | 0.29 | 0.28 | 54 | 1006.4 |
| 20260509200051 | 71 | 148 | 2.0 | 9.0 | 0.00 | 0.29 | 0.28 | 55 | 1006.5 |
| 20260509195048 | 71 | 213 | 4.0 | 11.0 | 0.00 | 0.29 | 0.28 | 53 | 1007.0 |
| 20260509194046 | 71 | 354 | 4.0 | 9.0 | 0.00 | 0.29 | 0.28 | 52 | 1006.8 |
| 20260509193047 | 71 | 197 | 2.0 | 8.0 | 0.00 | 0.29 | 0.28 | 56 | 1006.8 |
| 20260509191042 | 70 | 345 | 1.0 | 8.0 | 0.00 | 0.29 | 0.28 | 58 | 1007.2 |
| 20260509190037 | 69 | 199 | 2.0 | 9.0 | 0.00 | 0.29 | 0.28 | 60 | 1007.2 |
| 20260509184036 | 69 | 206 | 2.0 | 9.0 | 0.00 | 0.29 | 0.28 | 60 | 1007.4 |
| 20260509183029 | 68 | 237 | 2.0 | 7.0 | 0.00 | 0.29 | 0.28 | 60 | 1007.1 |
| 20260509182031 | 68 | 309 | 2.0 | 10.0 | 0.00 | 0.29 | 0.28 | 62 | 1007.3 |
| 20260509180029 | 67 | 246 | 1.0 | 9.0 | 0.00 | 0.29 | 0.28 | 64 | 1007.7 |